KALO

Waterloo Regional Airport

Waterloo, Iowa, USA
METAR KALO 170754Z AUTO 08004KT 6SM BR CLR M04/M05 A3003 RMK AO2 SLP179 T10391050
Observed Flight Rules
Dec-17 @ 07:54 UTC (18 minutes ago) Visual Flight Rules
Wind Visibility Clouds Conditions
80° at 4 knots 6 miles
  • Clear skies
  • Mist
Temperatures Readings
Current -4°C / 25°F
Dewpoint -5°C / 23°F
Humidity 93%
Altimeter 30.03" Hg
Pressure 1017.9 hPa
Elevation 264
METAR KALO 170754Z AUTO 08004KT 6SM BR CLR M04/M05 A3003 RMK AO2 SLP179 T10391050
Observed Flight Rules
Dec-17 @ 07:54 UTC
(18 minutes ago)
VFR
Wind Visibility
80° at 4 knots 6 miles
Clouds
  • Clear skies
Conditions
  • Mist
Temperature Dewpoint
-4°C / 25°F -5°C / 23°F
Humidity Altimeter Pressure
93% 30.03" Hg 1017.9 hPa